createdAt,value
2022-10-05T00:01:22.353Z,36.70
2022-10-05T00:04:16.088Z,35.75
2022-10-05T00:07:15.433Z,37.45
2022-10-05T00:10:00.994Z,32.33
2022-10-05T00:12:48.175Z,36.40
2022-10-05T00:15:36.247Z,40.97
2022-10-05T00:18:22.160Z,39.13
2022-10-05T00:21:25.743Z,42.13
2022-10-05T00:27:01.563Z,40.13
2022-10-05T00:29:49.246Z,36.85
2022-10-05T00:32:34.907Z,40.70
2022-10-05T00:35:20.696Z,42.63
2022-10-05T00:38:06.641Z,39.05
2022-10-05T00:41:19.583Z,40.97
2022-10-05T00:44:30.572Z,35.72
2022-10-05T00:47:34.633Z,47.42
2022-10-05T00:50:31.127Z,37.53
2022-10-05T00:53:29.858Z,40.88
2022-10-05T00:56:46.587Z,35.80
2022-10-05T00:59:41.492Z,38.88
2022-10-05T01:02:52.508Z,39.00
2022-10-05T01:06:10.599Z,34.90
2022-10-05T01:09:24.080Z,32.85
2022-10-05T01:12:15.752Z,36.47
2022-10-05T01:15:11.338Z,40.83
2022-10-05T01:18:07.824Z,39.95
2022-10-05T01:21:11.906Z,43.08
2022-10-05T01:24:16.427Z,32.20
2022-10-05T01:27:58.947Z,35.72
2022-10-05T01:31:09.293Z,40.97
2022-10-05T01:34:12.938Z,36.92
2022-10-05T01:37:09.352Z,34.33
2022-10-05T01:40:19.393Z,34.60
2022-10-05T01:43:27.000Z,35.65
2022-10-05T01:46:33.756Z,34.25
2022-10-05T01:49:52.092Z,35.90
2022-10-05T01:52:48.055Z,38.22
2022-10-05T01:56:06.093Z,36.28
2022-10-05T01:59:27.775Z,40.17
2022-10-05T02:02:18.937Z,33.78
2022-10-05T02:05:20.005Z,37.38
2022-10-05T02:08:16.109Z,42.25
2022-10-05T02:11:08.978Z,34.08
2022-10-05T02:14:09.081Z,31.17
2022-10-05T02:16:59.263Z,31.33
2022-10-05T02:19:56.038Z,31.50
2022-10-05T02:22:49.180Z,35.25
2022-10-05T02:28:41.817Z,34.33
2022-10-05T02:31:40.768Z,37.97
2022-10-05T02:34:41.811Z,37.28
2022-10-05T02:38:01.877Z,30.25
2022-10-05T02:40:54.915Z,34.25
2022-10-05T02:43:52.906Z,34.22
2022-10-05T02:47:04.207Z,38.45
2022-10-05T02:50:17.204Z,30.67
2022-10-05T02:53:09.994Z,35.23
2022-10-05T02:56:22.608Z,30.80
2022-10-05T02:59:21.851Z,34.42
2022-10-05T03:02:10.797Z,35.10
2022-10-05T03:04:59.986Z,34.83
2022-10-05T03:07:52.590Z,34.92
2022-10-05T03:11:00.234Z,35.40
2022-10-05T03:13:58.798Z,36.53
2022-10-05T03:16:48.676Z,35.67
2022-10-05T03:20:08.588Z,31.83
2022-10-05T03:23:04.950Z,37.28
2022-10-05T03:26:07.914Z,37.70
2022-10-05T03:28:59.414Z,33.45
2022-10-05T03:32:25.074Z,40.20
2022-10-05T03:35:19.814Z,53.22
2022-10-05T03:38:33.043Z,49.45
2022-10-05T03:44:17.125Z,51.75
2022-10-05T03:47:25.648Z,48.50
2022-10-05T03:50:25.083Z,48.47
2022-10-05T03:53:20.809Z,54.90
2022-10-05T03:56:10.870Z,46.88
2022-10-05T03:59:25.246Z,46.65
2022-10-05T04:02:28.060Z,49.60
2022-10-05T04:05:18.261Z,43.30
2022-10-05T04:08:29.583Z,41.70
2022-10-05T04:11:21.670Z,45.95
2022-10-05T04:14:15.437Z,43.50
2022-10-05T04:17:08.801Z,41.78
2022-10-05T04:23:17.502Z,48.38
2022-10-05T04:26:09.549Z,39.67
2022-10-05T04:29:14.014Z,42.28
2022-10-05T04:32:12.257Z,44.97
2022-10-05T04:35:16.507Z,38.97
2022-10-05T04:38:34.809Z,38.58
2022-10-05T04:41:25.600Z,39.70
2022-10-05T04:44:31.043Z,40.10
2022-10-05T04:48:04.595Z,41.70
2022-10-05T04:51:01.359Z,42.13
2022-10-05T04:53:53.271Z,40.60
2022-10-05T04:56:49.761Z,40.90
2022-10-05T05:00:00.675Z,38.83
2022-10-05T05:03:09.409Z,40.22
2022-10-05T05:06:24.462Z,38.38
2022-10-05T05:09:43.826Z,37.17
2022-10-05T05:12:57.867Z,38.47
2022-10-05T05:19:09.259Z,36.05
2022-10-05T05:22:14.678Z,33.13
2022-10-05T05:25:06.912Z,31.17
2022-10-05T05:28:22.788Z,34.08
2022-10-05T05:31:36.273Z,35.20
2022-10-05T05:34:38.793Z,30.88
2022-10-05T05:37:49.354Z,31.80
2022-10-05T05:40:43.879Z,34.33
2022-10-05T05:44:07.079Z,32.72
2022-10-05T05:47:04.782Z,34.33
2022-10-05T05:50:07.492Z,32.38
2022-10-05T05:53:19.886Z,34.97
2022-10-05T05:56:40.417Z,32.70
2022-10-05T06:00:00.504Z,27.38
2022-10-05T06:02:57.341Z,28.95
2022-10-05T06:05:57.166Z,30.38
2022-10-05T06:09:00.732Z,35.88
2022-10-05T06:12:13.211Z,33.88
2022-10-05T06:15:13.664Z,34.92
2022-10-05T06:18:08.759Z,36.47
2022-10-05T06:21:50.148Z,39.83
2022-10-05T06:24:45.758Z,34.10
2022-10-05T06:27:34.722Z,31.48
2022-10-05T06:30:20.405Z,32.65
2022-10-05T06:33:21.076Z,29.90
2022-10-05T06:36:18.298Z,32.38
2022-10-05T06:39:29.034Z,37.53
2022-10-05T06:42:37.170Z,31.77
2022-10-05T06:45:47.545Z,30.75
2022-10-05T06:49:10.040Z,30.38
2022-10-05T06:53:05.250Z,33.08
2022-10-05T06:55:53.743Z,33.03
2022-10-05T06:58:39.643Z,36.08
2022-10-05T07:01:41.643Z,31.17
2022-10-05T07:04:49.975Z,28.63
2022-10-05T07:08:01.744Z,24.27
2022-10-05T07:11:02.699Z,29.17
2022-10-05T07:14:04.033Z,32.72
2022-10-05T07:17:32.594Z,30.85
2022-10-05T07:20:24.048Z,24.40
2022-10-05T07:23:22.507Z,27.52
2022-10-05T07:26:22.904Z,31.30
2022-10-05T07:29:11.489Z,30.42
2022-10-05T07:32:32.641Z,34.33
2022-10-05T07:35:56.185Z,37.05
2022-10-05T07:38:51.263Z,37.80
2022-10-05T07:41:51.226Z,33.55
2022-10-05T07:44:43.906Z,25.40
2022-10-05T07:47:45.626Z,31.47
2022-10-05T07:50:43.702Z,34.50
2022-10-05T07:53:40.958Z,25.92
2022-10-05T07:56:37.958Z,35.78
2022-10-05T07:59:43.949Z,30.15
2022-10-05T08:02:44.543Z,29.95
2022-10-05T08:05:38.841Z,27.33
2022-10-05T08:08:57.412Z,25.52
2022-10-05T08:11:56.742Z,31.77
2022-10-05T08:15:20.706Z,34.08
2022-10-05T08:18:35.504Z,35.65
2022-10-05T08:21:32.067Z,33.95
2022-10-05T08:24:35.499Z,38.15
2022-10-05T08:27:21.104Z,33.83
2022-10-05T08:30:10.571Z,40.03
2022-10-05T08:32:58.908Z,34.47
2022-10-05T08:35:51.172Z,29.90
2022-10-05T08:38:37.592Z,32.15
2022-10-05T08:41:44.489Z,33.55
2022-10-05T08:44:36.358Z,29.50
2022-10-05T08:47:52.937Z,35.20
2022-10-05T08:50:56.997Z,31.10
2022-10-05T08:54:07.864Z,32.72
2022-10-05T08:57:27.983Z,34.55
2022-10-05T09:00:22.532Z,35.67
2022-10-05T09:03:28.982Z,34.72
2022-10-05T09:06:33.320Z,46.65
2022-10-05T09:09:34.728Z,40.28
2022-10-05T09:12:51.407Z,41.85
2022-10-05T09:16:08.944Z,41.15
2022-10-05T09:19:16.634Z,41.88
2022-10-05T09:22:30.982Z,41.65
2022-10-05T09:25:22.903Z,47.15
2022-10-05T09:28:29.392Z,50.15
2022-10-05T09:31:30.385Z,48.72
2022-10-05T09:34:39.695Z,45.83
2022-10-05T09:37:46.325Z,41.25
2022-10-05T09:40:36.018Z,42.28
2022-10-05T09:43:40.248Z,44.65
2022-10-05T09:46:59.927Z,46.08
2022-10-05T09:50:04.281Z,39.70
2022-10-05T09:53:15.516Z,40.63
2022-10-05T09:56:20.406Z,50.50
2022-10-05T09:59:44.035Z,42.78
2022-10-05T10:03:05.500Z,46.22
2022-10-05T10:06:03.470Z,33.38
2022-10-05T10:08:52.097Z,34.88
2022-10-05T10:11:56.621Z,47.35
2022-10-05T10:15:11.739Z,50.47
2022-10-05T10:18:20.835Z,47.15
2022-10-05T10:21:24.604Z,46.42
2022-10-05T10:24:24.649Z,48.90
2022-10-05T10:27:10.191Z,46.83
2022-10-05T10:29:59.150Z,42.53
2022-10-05T10:33:15.535Z,46.88
2022-10-05T10:36:13.222Z,47.38
2022-10-05T10:39:24.391Z,50.30
2022-10-05T10:42:30.735Z,44.40
2022-10-05T10:45:28.653Z,45.25
2022-10-05T10:48:26.255Z,48.90
2022-10-05T10:51:14.614Z,43.03
2022-10-05T10:54:49.433Z,40.92
2022-10-05T10:57:49.684Z,43.65
2022-10-05T11:00:56.547Z,51.15
2022-10-05T11:04:00.409Z,51.00
2022-10-05T11:06:58.638Z,48.08
2022-10-05T11:10:23.097Z,43.53
2022-10-05T11:16:04.105Z,49.47
2022-10-05T11:19:02.842Z,49.15
2022-10-05T11:22:17.167Z,52.17
2022-10-05T11:25:28.102Z,49.75
2022-10-05T11:28:57.930Z,56.58
2022-10-05T11:31:46.161Z,46.90
2022-10-05T11:34:43.828Z,38.72
2022-10-05T11:37:48.787Z,36.58
2022-10-05T11:40:47.642Z,32.92
2022-10-05T11:43:48.857Z,27.15
2022-10-05T11:46:58.423Z,43.65
2022-10-05T11:49:44.210Z,37.20
2022-10-05T11:52:44.906Z,40.25
2022-10-05T11:55:37.135Z,34.33
2022-10-05T11:58:29.479Z,37.78
2022-10-05T12:01:27.190Z,43.53
2022-10-05T12:04:27.504Z,39.53
2022-10-05T12:07:28.364Z,29.63
2022-10-05T12:10:32.793Z,35.72
2022-10-05T12:13:58.171Z,34.58
2022-10-05T12:17:28.747Z,30.67
2022-10-05T12:20:24.978Z,27.35
2022-10-05T12:23:19.579Z,32.17
2022-10-05T12:26:05.362Z,25.55
2022-10-05T12:29:16.329Z,35.70
2022-10-05T12:32:18.483Z,31.33
2022-10-05T12:35:48.069Z,25.77
2022-10-05T12:38:49.722Z,20.58
2022-10-05T12:41:40.572Z,25.40
2022-10-05T12:44:49.419Z,27.50
2022-10-05T12:47:35.342Z,26.55
2022-10-05T12:50:30.618Z,28.10
2022-10-05T12:53:48.337Z,26.55
2022-10-05T12:56:59.344Z,21.80
2022-10-05T13:00:17.740Z,22.50
2022-10-05T13:03:23.970Z,24.98
2022-10-05T13:06:18.186Z,28.10
2022-10-05T13:09:27.041Z,23.15
2022-10-05T13:12:23.071Z,19.10
2022-10-05T13:15:08.832Z,19.25
2022-10-05T13:18:15.231Z,18.08
2022-10-05T13:21:06.917Z,19.98
2022-10-05T13:24:20.953Z,22.00
2022-10-05T13:27:14.339Z,20.90
2022-10-05T13:30:20.871Z,20.40
2022-10-05T13:33:20.095Z,18.58
2022-10-05T13:36:13.827Z,19.15
2022-10-05T13:39:18.302Z,22.25
2022-10-05T13:42:15.628Z,18.58
2022-10-05T13:45:12.877Z,15.52
2022-10-05T13:48:22.815Z,23.05
2022-10-05T13:51:18.203Z,17.58
2022-10-05T13:54:30.244Z,18.52
2022-10-05T13:57:29.961Z,16.67
2022-10-05T14:00:26.262Z,18.35
2022-10-05T14:03:38.964Z,19.88
2022-10-05T14:06:30.704Z,14.25
2022-10-05T14:09:22.977Z,29.60
2022-10-05T14:12:36.766Z,21.60
2022-10-05T14:15:29.017Z,21.15
2022-10-05T14:18:25.047Z,19.60
2022-10-05T14:21:19.443Z,13.48
2022-10-05T14:24:45.670Z,18.95
2022-10-05T14:27:35.059Z,18.23
2022-10-05T14:30:25.680Z,17.80
2022-10-05T14:33:16.992Z,20.77
2022-10-05T14:36:06.296Z,21.55
2022-10-05T14:38:55.114Z,18.75
2022-10-05T14:41:50.952Z,18.83
2022-10-05T14:44:36.526Z,41.15
2022-10-05T14:47:24.081Z,23.63
2022-10-05T14:50:26.021Z,18.85
2022-10-05T14:53:11.843Z,14.88
2022-10-05T14:56:17.454Z,16.40
2022-10-05T14:59:26.683Z,15.30
2022-10-05T15:02:51.411Z,14.88
2022-10-05T15:05:55.726Z,18.58
2022-10-05T15:09:17.342Z,15.57
2022-10-05T15:12:04.195Z,16.80
2022-10-05T15:14:52.643Z,18.33
2022-10-05T15:17:54.964Z,23.85
2022-10-05T15:20:56.181Z,15.50
2022-10-05T15:23:47.757Z,16.30
2022-10-05T15:26:56.923Z,16.00
2022-10-05T15:30:04.583Z,13.95
2022-10-05T15:33:02.118Z,13.63
2022-10-05T15:35:48.073Z,16.17
2022-10-05T15:39:03.538Z,12.88
2022-10-05T15:42:03.326Z,18.63
2022-10-05T15:45:06.143Z,13.65
2022-10-05T15:48:29.159Z,17.55
2022-10-05T15:51:30.707Z,16.73
2022-10-05T15:54:54.505Z,22.00
2022-10-05T15:57:52.691Z,15.45
2022-10-05T16:01:08.663Z,16.73
2022-10-05T16:04:22.394Z,12.02
2022-10-05T16:10:26.793Z,13.52
2022-10-05T16:13:29.754Z,14.82
2022-10-05T16:16:31.154Z,16.90
2022-10-05T16:19:25.813Z,13.73
2022-10-05T16:22:11.241Z,12.48
2022-10-05T16:25:13.185Z,16.98
2022-10-05T16:28:22.516Z,20.15
2022-10-05T16:31:26.499Z,12.80
2022-10-05T16:34:50.515Z,19.67
2022-10-05T16:38:02.336Z,12.20
2022-10-05T16:41:35.732Z,15.05
2022-10-05T16:44:31.349Z,14.48
2022-10-05T16:47:53.757Z,15.20
2022-10-05T16:51:02.682Z,13.25
2022-10-05T16:54:00.403Z,15.02
2022-10-05T16:57:05.451Z,17.10
2022-10-05T17:00:16.036Z,8.90
2022-10-05T17:03:11.244Z,17.38
2022-10-05T17:06:23.057Z,12.63
2022-10-05T17:09:27.010Z,15.48
2022-10-05T17:12:39.285Z,10.60
2022-10-05T17:15:31.570Z,12.57
2022-10-05T17:18:48.983Z,18.90
2022-10-05T17:21:40.250Z,13.50
2022-10-05T17:24:51.137Z,16.58
2022-10-05T17:27:57.786Z,20.95
2022-10-05T17:31:17.437Z,15.07
2022-10-05T17:34:26.712Z,16.23
2022-10-05T17:37:23.059Z,16.17
2022-10-05T17:40:40.817Z,12.68
2022-10-05T17:43:28.213Z,22.08
2022-10-05T17:46:48.558Z,16.90
2022-10-05T17:50:17.799Z,19.17
2022-10-05T17:53:54.233Z,17.30
2022-10-05T17:57:06.223Z,18.70
2022-10-05T17:59:58.300Z,21.02
2022-10-05T18:02:44.221Z,26.95
2022-10-05T18:05:30.827Z,18.38
2022-10-05T18:08:23.456Z,21.92
2022-10-05T18:11:09.818Z,29.05
2022-10-05T18:14:19.822Z,28.38
2022-10-05T18:17:13.638Z,25.55
2022-10-05T18:20:21.041Z,18.33
2022-10-05T18:23:07.352Z,22.73
2022-10-05T18:26:04.865Z,27.17
2022-10-05T18:29:46.778Z,25.98
2022-10-05T18:32:50.832Z,20.75
2022-10-05T18:35:48.439Z,19.63
2022-10-05T18:38:56.343Z,17.40
2022-10-05T18:42:17.686Z,22.30
2022-10-05T18:45:23.888Z,22.05
2022-10-05T18:48:15.055Z,25.42
2022-10-05T18:51:05.350Z,25.85
2022-10-05T18:54:00.114Z,23.20
2022-10-05T18:56:50.057Z,21.38
2022-10-05T18:59:44.010Z,22.55
2022-10-05T19:02:38.432Z,25.10
2022-10-05T19:05:48.806Z,24.17
2022-10-05T19:08:52.169Z,20.10
2022-10-05T19:11:59.762Z,28.20
2022-10-05T19:15:00.725Z,25.27
2022-10-05T19:17:49.194Z,18.48
2022-10-05T19:20:57.154Z,17.55
2022-10-05T19:24:01.722Z,21.48
2022-10-05T19:27:26.138Z,19.88
2022-10-05T19:30:13.817Z,22.63
2022-10-05T19:33:21.613Z,21.13
2022-10-05T19:36:22.851Z,21.17
2022-10-05T19:39:32.332Z,22.95
2022-10-05T19:42:26.945Z,16.70
2022-10-05T19:45:23.271Z,24.70
2022-10-05T19:48:35.977Z,19.88
2022-10-05T19:51:28.754Z,23.60
2022-10-05T19:54:29.086Z,24.88
2022-10-05T19:57:18.059Z,18.25
2022-10-05T20:00:04.553Z,18.15
2022-10-05T20:02:51.089Z,22.50
2022-10-05T20:05:36.709Z,27.35
2022-10-05T20:08:26.878Z,21.75
2022-10-05T20:11:21.758Z,22.27
2022-10-05T20:14:09.429Z,21.85
2022-10-05T20:17:45.822Z,22.63
2022-10-05T20:20:34.442Z,23.80
2022-10-05T20:23:28.100Z,21.92
2022-10-05T20:29:51.262Z,25.02
2022-10-05T20:32:37.128Z,20.77
2022-10-05T20:35:22.968Z,26.45
2022-10-05T20:38:08.667Z,20.30
2022-10-05T20:40:54.362Z,27.33
2022-10-05T20:43:40.459Z,21.92
2022-10-05T20:46:26.400Z,25.13
2022-10-05T20:49:12.659Z,21.73
2022-10-05T20:51:59.273Z,25.02
2022-10-05T20:57:31.618Z,25.10
2022-10-05T21:00:17.390Z,26.85
2022-10-05T21:03:03.432Z,19.95
2022-10-05T21:05:49.204Z,20.75
2022-10-05T21:08:38.263Z,27.05
2022-10-05T21:11:24.282Z,26.48
2022-10-05T21:14:11.390Z,23.58
2022-10-05T21:16:56.931Z,31.50
2022-10-05T21:19:42.679Z,22.50
2022-10-05T21:22:28.177Z,24.58
2022-10-05T21:25:13.956Z,23.15
2022-10-05T21:27:59.742Z,22.15
2022-10-05T21:30:45.415Z,27.10
2022-10-05T21:33:31.162Z,26.25
2022-10-05T21:36:19.996Z,25.38
2022-10-05T21:39:07.981Z,23.58
2022-10-05T21:41:53.611Z,25.35
2022-10-05T21:44:39.386Z,30.58
2022-10-05T21:47:25.806Z,28.75
2022-10-05T21:50:11.482Z,25.55
2022-10-05T21:52:57.062Z,25.40
2022-10-05T21:55:46.791Z,25.48
2022-10-05T21:58:32.563Z,23.48
2022-10-05T22:01:22.481Z,34.47
2022-10-05T22:04:08.718Z,24.13
2022-10-05T22:06:55.888Z,25.67
2022-10-05T22:09:41.521Z,24.85
2022-10-05T22:12:28.151Z,27.98
2022-10-05T22:15:14.843Z,27.85
2022-10-05T22:18:00.279Z,26.48
2022-10-05T22:20:46.234Z,28.00
2022-10-05T22:23:33.959Z,26.48
2022-10-05T22:26:22.347Z,25.52
2022-10-05T22:29:08.115Z,30.80
2022-10-05T22:31:56.314Z,27.00
2022-10-05T22:34:41.870Z,24.17
2022-10-05T22:37:27.360Z,27.23
2022-10-05T22:40:13.070Z,24.33
2022-10-05T22:42:58.950Z,29.88
2022-10-05T22:45:44.867Z,27.20
2022-10-05T22:48:30.960Z,24.70
2022-10-05T22:51:16.751Z,24.98
2022-10-05T22:54:02.419Z,25.77
2022-10-05T22:56:48.429Z,28.83
2022-10-05T22:59:34.083Z,28.35
2022-10-05T23:02:20.268Z,31.90
2022-10-05T23:05:06.367Z,22.30
2022-10-05T23:07:52.816Z,26.83
2022-10-05T23:10:38.489Z,29.75
2022-10-05T23:13:23.923Z,26.33
2022-10-05T23:16:16.906Z,26.88
2022-10-05T23:19:03.071Z,30.83
2022-10-05T23:21:49.183Z,27.73
2022-10-05T23:24:35.427Z,25.35
2022-10-05T23:27:21.215Z,28.50
2022-10-05T23:30:08.951Z,28.80
2022-10-05T23:32:54.477Z,27.23
2022-10-05T23:35:40.186Z,36.35
2022-10-05T23:38:26.449Z,23.80
2022-10-05T23:41:12.978Z,31.48
2022-10-05T23:43:58.692Z,26.33
2022-10-05T23:46:44.312Z,29.30
2022-10-05T23:49:29.894Z,24.77
2022-10-05T23:52:15.856Z,29.15
2022-10-05T23:55:05.203Z,27.33
2022-10-05T23:57:50.923Z,27.02
